sensor_id;sensor_type;location;lat;lon;timestamp;pressure;altitude;pressure_sealevel;temperature;humidity
68301;BME280;55146;47.468;18.806;2022-07-25T00:00:37;100130.38;;;23.16;52.51
68301;BME280;55146;47.468;18.806;2022-07-25T00:03:02;100130.97;;;23.37;51.88
68301;BME280;55146;47.468;18.806;2022-07-25T00:05:28;100129.66;;;23.47;51.48
68301;BME280;55146;47.468;18.806;2022-07-25T00:07:53;100130.84;;;23.18;52.16
68301;BME280;55146;47.468;18.806;2022-07-25T00:10:19;100124.81;;;23.04;52.91
68301;BME280;55146;47.468;18.806;2022-07-25T00:12:44;100128.44;;;22.77;53.54
68301;BME280;55146;47.468;18.806;2022-07-25T00:15:10;100132.41;;;22.76;53.28
68301;BME280;55146;47.468;18.806;2022-07-25T00:17:36;100135.91;;;22.73;53.43
68301;BME280;55146;47.468;18.806;2022-07-25T00:20:02;100128.09;;;22.54;53.56
68301;BME280;55146;47.468;18.806;2022-07-25T00:22:28;100129.63;;;22.51;54.41
68301;BME280;55146;47.468;18.806;2022-07-25T00:24:53;100125.81;;;22.84;53.39
68301;BME280;55146;47.468;18.806;2022-07-25T00:27:19;100123.34;;;22.94;53.30
68301;BME280;55146;47.468;18.806;2022-07-25T00:29:44;100124.81;;;22.76;53.96
68301;BME280;55146;47.468;18.806;2022-07-25T00:32:09;100125.16;;;22.75;53.97
68301;BME280;55146;47.468;18.806;2022-07-25T00:34:35;100115.22;;;22.65;53.99
68301;BME280;55146;47.468;18.806;2022-07-25T00:37:00;100120.25;;;22.59;53.74
68301;BME280;55146;47.468;18.806;2022-07-25T00:39:26;100113.97;;;22.50;53.77
68301;BME280;55146;47.468;18.806;2022-07-25T00:41:51;100124.78;;;22.88;53.19
68301;BME280;55146;47.468;18.806;2022-07-25T00:44:24;100125.81;;;22.72;53.39
68301;BME280;55146;47.468;18.806;2022-07-25T00:46:49;100126.69;;;22.48;51.83
68301;BME280;55146;47.468;18.806;2022-07-25T00:49:15;100122.72;;;22.61;52.85
68301;BME280;55146;47.468;18.806;2022-07-25T00:51:40;100120.81;;;22.65;53.19
68301;BME280;55146;47.468;18.806;2022-07-25T00:54:06;100126.19;;;22.82;52.34
68301;BME280;55146;47.468;18.806;2022-07-25T00:56:32;100130.53;;;22.80;52.36
68301;BME280;55146;47.468;18.806;2022-07-25T00:58:57;100132.50;;;22.79;52.42
68301;BME280;55146;47.468;18.806;2022-07-25T01:01:22;100130.00;;;22.90;51.44
68301;BME280;55146;47.468;18.806;2022-07-25T01:03:48;100137.00;;;22.96;51.14
68301;BME280;55146;47.468;18.806;2022-07-25T01:06:13;100128.78;;;22.75;50.34
68301;BME280;55146;47.468;18.806;2022-07-25T01:08:39;100134.19;;;22.56;50.87
68301;BME280;55146;47.468;18.806;2022-07-25T01:11:04;100129.34;;;22.69;51.47
68301;BME280;55146;47.468;18.806;2022-07-25T01:13:33;100132.75;;;22.74;50.61
68301;BME280;55146;47.468;18.806;2022-07-25T01:15:59;100131.81;;;22.82;50.34
68301;BME280;55146;47.468;18.806;2022-07-25T01:18:24;100132.63;;;22.83;50.93
68301;BME280;55146;47.468;18.806;2022-07-25T01:20:50;100134.25;;;22.72;50.57
68301;BME280;55146;47.468;18.806;2022-07-25T01:23:15;100131.47;;;22.59;49.96
68301;BME280;55146;47.468;18.806;2022-07-25T01:25:40;100137.00;;;22.44;51.17
68301;BME280;55146;47.468;18.806;2022-07-25T01:28:06;100130.31;;;22.60;50.30
68301;BME280;55146;47.468;18.806;2022-07-25T01:30:31;100123.41;;;22.70;50.89
68301;BME280;55146;47.468;18.806;2022-07-25T01:32:57;100129.59;;;22.76;49.78
68301;BME280;55146;47.468;18.806;2022-07-25T01:35:22;100124.44;;;22.66;49.24
68301;BME280;55146;47.468;18.806;2022-07-25T01:37:47;100121.97;;;22.12;51.17
68301;BME280;55146;47.468;18.806;2022-07-25T01:40:13;100124.41;;;22.38;51.46
68301;BME280;55146;47.468;18.806;2022-07-25T01:42:39;100123.25;;;22.14;51.23
68301;BME280;55146;47.468;18.806;2022-07-25T01:45:05;100124.91;;;22.03;51.37
68301;BME280;55146;47.468;18.806;2022-07-25T01:47:30;100115.41;;;21.84;51.47
68301;BME280;55146;47.468;18.806;2022-07-25T01:49:55;100117.16;;;21.88;52.19
68301;BME280;55146;47.468;18.806;2022-07-25T01:52:21;100122.78;;;22.00;51.69
68301;BME280;55146;47.468;18.806;2022-07-25T01:54:46;100116.84;;;22.02;51.96
68301;BME280;55146;47.468;18.806;2022-07-25T01:57:12;100112.88;;;22.03;50.12
68301;BME280;55146;47.468;18.806;2022-07-25T01:59:38;100120.81;;;22.13;51.72
68301;BME280;55146;47.468;18.806;2022-07-25T02:02:05;100112.38;;;22.13;50.34
68301;BME280;55146;47.468;18.806;2022-07-25T02:04:31;100105.16;;;22.12;50.92
68301;BME280;55146;47.468;18.806;2022-07-25T02:06:56;100108.44;;;22.14;50.10
68301;BME280;55146;47.468;18.806;2022-07-25T02:09:22;100108.84;;;21.92;51.34
68301;BME280;55146;47.468;18.806;2022-07-25T02:11:47;100114.97;;;22.06;51.13
68301;BME280;55146;47.468;18.806;2022-07-25T02:14:12;100111.22;;;22.14;51.15
68301;BME280;55146;47.468;18.806;2022-07-25T02:16:38;100105.50;;;22.10;51.18
68301;BME280;55146;47.468;18.806;2022-07-25T02:19:03;100114.81;;;21.78;51.32
68301;BME280;55146;47.468;18.806;2022-07-25T02:21:29;100109.34;;;22.06;51.28
68301;BME280;55146;47.468;18.806;2022-07-25T02:23:54;100113.03;;;21.86;51.48
68301;BME280;55146;47.468;18.806;2022-07-25T02:26:19;100106.78;;;22.13;51.26
68301;BME280;55146;47.468;18.806;2022-07-25T02:28:45;100112.38;;;22.13;50.67
68301;BME280;55146;47.468;18.806;2022-07-25T02:31:10;100117.06;;;22.21;51.41
68301;BME280;55146;47.468;18.806;2022-07-25T02:33:36;100115.06;;;22.34;50.20
68301;BME280;55146;47.468;18.806;2022-07-25T02:36:01;100117.06;;;22.21;50.52
68301;BME280;55146;47.468;18.806;2022-07-25T02:38:27;100120.19;;;21.83;51.12
68301;BME280;55146;47.468;18.806;2022-07-25T02:40:52;100119.72;;;21.81;51.43
68301;BME280;55146;47.468;18.806;2022-07-25T02:43:18;100120.59;;;21.61;52.67
68301;BME280;55146;47.468;18.806;2022-07-25T02:45:44;100117.81;;;21.73;52.52
68301;BME280;55146;47.468;18.806;2022-07-25T02:48:10;100109.44;;;21.85;52.36
68301;BME280;55146;47.468;18.806;2022-07-25T02:50:36;100120.41;;;21.78;52.79
68301;BME280;55146;47.468;18.806;2022-07-25T02:53:02;100124.16;;;21.94;52.53
68301;BME280;55146;47.468;18.806;2022-07-25T02:55:29;100128.13;;;21.93;52.12
68301;BME280;55146;47.468;18.806;2022-07-25T02:57:54;100121.34;;;21.82;52.75
68301;BME280;55146;47.468;18.806;2022-07-25T03:00:19;100112.47;;;21.68;52.67
68301;BME280;55146;47.468;18.806;2022-07-25T03:02:45;100120.62;;;21.85;51.99
68301;BME280;55146;47.468;18.806;2022-07-25T03:05:12;100130.91;;;21.69;52.81
68301;BME280;55146;47.468;18.806;2022-07-25T03:07:38;100131.47;;;21.62;53.14
68301;BME280;55146;47.468;18.806;2022-07-25T03:10:06;100126.22;;;21.73;52.26
68301;BME280;55146;47.468;18.806;2022-07-25T03:12:32;100141.25;;;21.56;53.02
68301;BME280;55146;47.468;18.806;2022-07-25T03:14:58;100128.34;;;21.76;52.69
68301;BME280;55146;47.468;18.806;2022-07-25T03:17:24;100132.37;;;21.54;53.04
68301;BME280;55146;47.468;18.806;2022-07-25T03:19:49;100137.00;;;21.83;52.38
68301;BME280;55146;47.468;18.806;2022-07-25T03:22:14;100136.22;;;21.50;53.04
68301;BME280;55146;47.468;18.806;2022-07-25T03:24:40;100134.84;;;21.68;53.12
68301;BME280;55146;47.468;18.806;2022-07-25T03:27:05;100137.62;;;21.56;53.34
68301;BME280;55146;47.468;18.806;2022-07-25T03:29:31;100140.47;;;21.68;53.12
68301;BME280;55146;47.468;18.806;2022-07-25T03:31:56;100139.19;;;21.77;52.87
68301;BME280;55146;47.468;18.806;2022-07-25T03:34:21;100141.47;;;21.51;53.49
68301;BME280;55146;47.468;18.806;2022-07-25T03:36:47;100140.59;;;21.71;53.26
68301;BME280;55146;47.468;18.806;2022-07-25T03:39:12;100140.78;;;21.54;53.26
68301;BME280;55146;47.468;18.806;2022-07-25T03:41:38;100139.81;;;21.38;53.16
68301;BME280;55146;47.468;18.806;2022-07-25T03:44:04;100143.94;;;21.20;54.07
68301;BME280;55146;47.468;18.806;2022-07-25T03:46:29;100148.50;;;21.24;54.31
68301;BME280;55146;47.468;18.806;2022-07-25T03:48:54;100141.84;;;21.17;54.71
68301;BME280;55146;47.468;18.806;2022-07-25T03:51:20;100145.47;;;21.29;54.15
68301;BME280;55146;47.468;18.806;2022-07-25T03:53:45;100143.81;;;21.49;53.74
68301;BME280;55146;47.468;18.806;2022-07-25T03:56:41;100145.84;;;21.28;54.16
68301;BME280;55146;47.468;18.806;2022-07-25T03:59:08;100139.41;;;21.15;54.66
68301;BME280;55146;47.468;18.806;2022-07-25T04:01:35;100141.97;;;21.20;54.48
68301;BME280;55146;47.468;18.806;2022-07-25T04:04:01;100148.91;;;21.14;55.18
68301;BME280;55146;47.468;18.806;2022-07-25T04:06:27;100150.72;;;20.98;55.79
68301;BME280;55146;47.468;18.806;2022-07-25T04:08:53;100150.97;;;20.43;56.30
68301;BME280;55146;47.468;18.806;2022-07-25T04:11:19;100155.13;;;19.99;58.51
68301;BME280;55146;47.468;18.806;2022-07-25T04:13:44;100160.38;;;19.62;57.83
68301;BME280;55146;47.468;18.806;2022-07-25T04:16:10;100161.03;;;19.51;58.48
68301;BME280;55146;47.468;18.806;2022-07-25T04:18:36;100160.41;;;19.28;59.00
68301;BME280;55146;47.468;18.806;2022-07-25T04:21:02;100162.56;;;19.22;59.87
68301;BME280;55146;47.468;18.806;2022-07-25T04:23:27;100170.78;;;19.10;59.64
68301;BME280;55146;47.468;18.806;2022-07-25T04:25:54;100170.28;;;19.08;61.25
68301;BME280;55146;47.468;18.806;2022-07-25T04:28:19;100166.34;;;19.01;61.81
68301;BME280;55146;47.468;18.806;2022-07-25T04:30:45;100165.38;;;19.05;62.43
68301;BME280;55146;47.468;18.806;2022-07-25T04:33:11;100168.63;;;19.07;63.36
68301;BME280;55146;47.468;18.806;2022-07-25T04:35:36;100180.44;;;19.04;63.10
68301;BME280;55146;47.468;18.806;2022-07-25T04:38:02;100170.47;;;18.94;63.24
68301;BME280;55146;47.468;18.806;2022-07-25T04:40:27;100178.47;;;18.96;63.87
68301;BME280;55146;47.468;18.806;2022-07-25T04:42:53;100176.81;;;18.95;65.07
68301;BME280;55146;47.468;18.806;2022-07-25T04:45:18;100173.72;;;18.96;64.66
68301;BME280;55146;47.468;18.806;2022-07-25T04:47:44;100172.25;;;18.99;64.49
68301;BME280;55146;47.468;18.806;2022-07-25T04:50:09;100178.97;;;18.98;63.63
68301;BME280;55146;47.468;18.806;2022-07-25T04:52:34;100174.56;;;19.06;63.86
68301;BME280;55146;47.468;18.806;2022-07-25T04:55:00;100175.34;;;18.89;63.27
68301;BME280;55146;47.468;18.806;2022-07-25T04:57:25;100167.16;;;19.01;64.66
68301;BME280;55146;47.468;18.806;2022-07-25T04:59:50;100172.59;;;19.06;64.76
68301;BME280;55146;47.468;18.806;2022-07-25T05:02:16;100169.44;;;19.16;63.84
68301;BME280;55146;47.468;18.806;2022-07-25T05:04:41;100173.88;;;19.17;64.28
68301;BME280;55146;47.468;18.806;2022-07-25T05:07:06;100162.72;;;19.17;62.45
68301;BME280;55146;47.468;18.806;2022-07-25T05:09:32;100165.66;;;19.21;64.17
68301;BME280;55146;47.468;18.806;2022-07-25T05:11:57;100163.38;;;19.23;64.21
68301;BME280;55146;47.468;18.806;2022-07-25T05:14:22;100163.00;;;19.33;63.14
68301;BME280;55146;47.468;18.806;2022-07-25T05:16:48;100163.34;;;19.40;62.62
68301;BME280;55146;47.468;18.806;2022-07-25T05:19:13;100161.03;;;19.51;60.79
68301;BME280;55146;47.468;18.806;2022-07-25T05:21:38;100169.41;;;19.59;61.58
68301;BME280;55146;47.468;18.806;2022-07-25T05:24:04;100174.78;;;19.64;62.08
68301;BME280;55146;47.468;18.806;2022-07-25T05:26:29;100172.50;;;19.58;60.99
68301;BME280;55146;47.468;18.806;2022-07-25T05:28:55;100166.09;;;19.57;62.85
68301;BME280;55146;47.468;18.806;2022-07-25T05:31:20;100171.81;;;19.69;62.41
68301;BME280;55146;47.468;18.806;2022-07-25T05:33:45;100176.25;;;19.70;62.28
68301;BME280;55146;47.468;18.806;2022-07-25T05:36:11;100158.50;;;19.75;62.76
68301;BME280;55146;47.468;18.806;2022-07-25T05:38:36;100166.53;;;19.85;61.41
68301;BME280;55146;47.468;18.806;2022-07-25T05:41:01;100160.56;;;19.95;61.41
68301;BME280;55146;47.468;18.806;2022-07-25T05:43:27;100153.31;;;19.94;61.68
68301;BME280;55146;47.468;18.806;2022-07-25T05:45:52;100153.44;;;20.06;60.89
68301;BME280;55146;47.468;18.806;2022-07-25T05:48:18;100152.09;;;20.12;61.54
68301;BME280;55146;47.468;18.806;2022-07-25T05:50:43;100148.94;;;20.23;60.98
68301;BME280;55146;47.468;18.806;2022-07-25T05:53:10;100155.41;;;20.06;60.49
68301;BME280;55146;47.468;18.806;2022-07-25T05:55:35;100155.97;;;20.29;60.06
68301;BME280;55146;47.468;18.806;2022-07-25T05:58:00;100151.63;;;20.40;59.67
68301;BME280;55146;47.468;18.806;2022-07-25T06:00:26;100151.84;;;20.55;60.49
68301;BME280;55146;47.468;18.806;2022-07-25T06:02:51;100153.72;;;20.72;59.94
68301;BME280;55146;47.468;18.806;2022-07-25T06:05:16;100146.50;;;20.92;60.26
68301;BME280;55146;47.468;18.806;2022-07-25T06:07:42;100147.50;;;21.08;60.34
68301;BME280;55146;47.468;18.806;2022-07-25T06:10:07;100145.28;;;21.34;59.75
68301;BME280;55146;47.468;18.806;2022-07-25T06:12:33;100143.97;;;21.65;58.51
68301;BME280;55146;47.468;18.806;2022-07-25T06:14:59;100144.28;;;21.96;56.64
68301;BME280;55146;47.468;18.806;2022-07-25T06:17:25;100141.69;;;22.28;55.35
68301;BME280;55146;47.468;18.806;2022-07-25T06:19:50;100145.66;;;22.51;52.40
68301;BME280;55146;47.468;18.806;2022-07-25T06:22:15;100144.81;;;23.03;54.38
68301;BME280;55146;47.468;18.806;2022-07-25T06:24:41;100134.50;;;23.34;51.17
68301;BME280;55146;47.468;18.806;2022-07-25T06:27:06;100138.38;;;23.58;49.74
68301;BME280;55146;47.468;18.806;2022-07-25T06:29:32;100135.03;;;23.68;48.42
68301;BME280;55146;47.468;18.806;2022-07-25T06:31:58;100129.41;;;24.15;49.41
68301;BME280;55146;47.468;18.806;2022-07-25T06:34:23;100132.81;;;24.55;48.57
68301;BME280;55146;47.468;18.806;2022-07-25T06:36:48;100129.31;;;24.97;47.97
68301;BME280;55146;47.468;18.806;2022-07-25T06:39:13;100131.63;;;25.30;46.81
68301;BME280;55146;47.468;18.806;2022-07-25T06:41:39;100127.12;;;25.67;46.03
68301;BME280;55146;47.468;18.806;2022-07-25T06:44:04;100115.19;;;26.00;46.88
68301;BME280;55146;47.468;18.806;2022-07-25T06:46:29;100117.47;;;26.17;43.26
68301;BME280;55146;47.468;18.806;2022-07-25T06:50:10;100107.41;;;27.69;37.92
68301;BME280;55146;47.468;18.806;2022-07-25T06:52:36;100107.41;;;27.69;37.92
68301;BME280;55146;47.468;18.806;2022-07-25T06:55:03;100112.97;;;27.25;36.85
68301;BME280;55146;47.468;18.806;2022-07-25T06:57:28;100104.94;;;27.27;36.88
68301;BME280;55146;47.468;18.806;2022-07-25T06:59:54;100102.44;;;27.59;38.20
68301;BME280;55146;47.468;18.806;2022-07-25T07:02:19;100111.28;;;27.95;37.46
68301;BME280;55146;47.468;18.806;2022-07-25T07:04:44;100102.84;;;28.02;34.58
68301;BME280;55146;47.468;18.806;2022-07-25T07:07:10;100097.63;;;28.07;35.21
68301;BME280;55146;47.468;18.806;2022-07-25T07:09:35;100089.75;;;28.34;37.75
68301;BME280;55146;47.468;18.806;2022-07-25T07:12:00;100100.84;;;28.57;37.19
68301;BME280;55146;47.468;18.806;2022-07-25T07:14:26;100098.56;;;28.84;38.55
68301;BME280;55146;47.468;18.806;2022-07-25T07:16:51;100097.84;;;29.08;37.55
68301;BME280;55146;47.468;18.806;2022-07-25T07:19:17;100096.25;;;29.14;34.21
68301;BME280;55146;47.468;18.806;2022-07-25T07:21:42;100095.94;;;29.37;35.21
68301;BME280;55146;47.468;18.806;2022-07-25T07:24:08;100098.44;;;29.74;36.54
68301;BME280;55146;47.468;18.806;2022-07-25T07:26:33;100093.56;;;29.60;34.81
68301;BME280;55146;47.468;18.806;2022-07-25T07:28:59;100097.66;;;29.91;32.18
68301;BME280;55146;47.468;18.806;2022-07-25T07:31:26;100095.19;;;29.86;33.19
68301;BME280;55146;47.468;18.806;2022-07-25T07:33:52;100098.44;;;29.74;31.32
68301;BME280;55146;47.468;18.806;2022-07-25T07:36:17;100087.91;;;30.13;31.80
68301;BME280;55146;47.468;18.806;2022-07-25T07:38:42;100088.72;;;29.86;31.57
68301;BME280;55146;47.468;18.806;2022-07-25T07:41:09;100093.53;;;29.64;30.91
68301;BME280;55146;47.468;18.806;2022-07-25T07:43:35;100094.78;;;29.88;31.54
68301;BME280;55146;47.468;18.806;2022-07-25T07:46:01;100097.22;;;29.79;31.09
68301;BME280;55146;47.468;18.806;2022-07-25T07:48:29;100098.06;;;30.00;31.89
68301;BME280;55146;47.468;18.806;2022-07-25T07:50:55;100095.59;;;30.31;30.50
68301;BME280;55146;47.468;18.806;2022-07-25T07:53:21;100087.00;;;30.73;33.89
68301;BME280;55146;47.468;18.806;2022-07-25T07:55:46;100092.34;;;30.50;31.27
68301;BME280;55146;47.468;18.806;2022-07-25T07:58:19;100092.19;;;30.96;33.07
68301;BME280;55146;47.468;18.806;2022-07-25T08:00:47;100089.22;;;31.28;31.44
68301;BME280;55146;47.468;18.806;2022-07-25T08:03:16;100080.75;;;31.14;28.99
68301;BME280;55146;47.468;18.806;2022-07-25T08:05:45;100089.53;;;31.44;32.63
68301;BME280;55146;47.468;18.806;2022-07-25T08:08:12;100083.22;;;31.05;30.09
68301;BME280;55146;47.468;18.806;2022-07-25T08:10:40;100078.50;;;30.73;30.40
68301;BME280;55146;47.468;18.806;2022-07-25T08:13:20;100077.66;;;30.76;29.97
68301;BME280;55146;47.468;18.806;2022-07-25T08:15:53;100077.03;;;31.27;30.38
68301;BME280;55146;47.468;18.806;2022-07-25T08:18:21;100071.94;;;31.63;29.23
68301;BME280;55146;47.468;18.806;2022-07-25T08:20:47;100073.06;;;31.77;29.16
68301;BME280;55146;47.468;18.806;2022-07-25T08:23:14;100068.69;;;31.65;29.03
68301;BME280;55146;47.468;18.806;2022-07-25T08:25:41;100070.84;;;31.98;27.65
68301;BME280;55146;47.468;18.806;2022-07-25T08:28:07;100072.44;;;32.03;28.01
68301;BME280;55146;47.468;18.806;2022-07-25T08:30:33;100066.56;;;31.76;28.73
68301;BME280;55146;47.468;18.806;2022-07-25T08:33:02;100063.31;;;31.74;27.98
68301;BME280;55146;47.468;18.806;2022-07-25T08:35:28;100054.75;;;31.19;29.29
68301;BME280;55146;47.468;18.806;2022-07-25T08:37:55;100060.34;;;31.33;28.59
68301;BME280;55146;47.468;18.806;2022-07-25T08:40:22;100060.97;;;31.65;29.60
68301;BME280;55146;47.468;18.806;2022-07-25T08:42:48;100057.03;;;31.97;27.51
68301;BME280;55146;47.468;18.806;2022-07-25T08:45:15;100054.63;;;31.92;30.21
68301;BME280;55146;47.468;18.806;2022-07-25T08:47:42;100057.28;;;32.17;28.88
68301;BME280;55146;47.468;18.806;2022-07-25T08:50:12;100053.63;;;32.12;28.01
68301;BME280;55146;47.468;18.806;2022-07-25T08:52:39;100053.53;;;32.23;29.53
68301;BME280;55146;47.468;18.806;2022-07-25T08:55:10;100051.63;;;32.13;28.21
68301;BME280;55146;47.468;18.806;2022-07-25T08:57:39;100050.81;;;32.50;28.23
68301;BME280;55146;47.468;18.806;2022-07-25T09:00:09;100051.84;;;32.70;29.29
68301;BME280;55146;47.468;18.806;2022-07-25T09:02:36;100047.00;;;32.64;31.50
68301;BME280;55146;47.468;18.806;2022-07-25T09:05:03;100047.53;;;32.89;29.30
68301;BME280;55146;47.468;18.806;2022-07-25T09:07:46;100040.97;;;32.92;29.44
68301;BME280;55146;47.468;18.806;2022-07-25T09:12:41;100039.16;;;33.36;28.33
68301;BME280;55146;47.468;18.806;2022-07-25T09:15:07;100038.94;;;32.59;27.77
68301;BME280;55146;47.468;18.806;2022-07-25T09:17:36;100030.84;;;32.87;26.56
68301;BME280;55146;47.468;18.806;2022-07-25T09:20:01;100033.66;;;33.21;28.12
68301;BME280;55146;47.468;18.806;2022-07-25T09:22:27;100021.97;;;33.09;27.24
68301;BME280;55146;47.468;18.806;2022-07-25T09:24:54;100026.72;;;33.22;28.67
68301;BME280;55146;47.468;18.806;2022-07-25T09:27:19;100030.91;;;33.14;26.55
68301;BME280;55146;47.468;18.806;2022-07-25T09:29:45;100031.19;;;33.50;26.73
68301;BME280;55146;47.468;18.806;2022-07-25T09:32:20;100024.75;;;33.69;28.12
68301;BME280;55146;47.468;18.806;2022-07-25T09:34:48;100034.59;;;33.65;26.83
68301;BME280;55146;47.468;18.806;2022-07-25T09:37:18;100014.66;;;34.11;26.39
68301;BME280;55146;47.468;18.806;2022-07-25T09:39:49;100019.28;;;33.28;28.15
68301;BME280;55146;47.468;18.806;2022-07-25T09:42:22;100014.25;;;33.63;26.32
68301;BME280;55146;47.468;18.806;2022-07-25T09:45:11;100018.53;;;33.24;26.91
68301;BME280;55146;47.468;18.806;2022-07-25T09:47:55;100003.00;;;33.52;26.57
68301;BME280;55146;47.468;18.806;2022-07-25T09:50:22;99998.59;;;33.48;25.38
68301;BME280;55146;47.468;18.806;2022-07-25T09:52:53;100000.28;;;33.45;25.71
68301;BME280;55146;47.468;18.806;2022-07-25T09:55:19;99997.78;;;33.97;29.58
68301;BME280;55146;47.468;18.806;2022-07-25T09:57:46;99997.22;;;34.06;23.98
68301;BME280;55146;47.468;18.806;2022-07-25T10:00:14;99990.19;;;34.10;27.47
68301;BME280;55146;47.468;18.806;2022-07-25T10:02:49;99992.53;;;34.16;24.69
68301;BME280;55146;47.468;18.806;2022-07-25T10:05:30;99988.34;;;34.24;25.02
68301;BME280;55146;47.468;18.806;2022-07-25T10:07:58;99987.63;;;34.16;24.90
68301;BME280;55146;47.468;18.806;2022-07-25T10:10:30;99973.16;;;34.46;27.52
68301;BME280;55146;47.468;18.806;2022-07-25T10:13:07;99969.13;;;34.64;28.26
68301;BME280;55146;47.468;18.806;2022-07-25T10:16:01;99974.50;;;34.42;26.02
68301;BME280;55146;47.468;18.806;2022-07-25T10:18:28;99971.53;;;34.65;24.61
68301;BME280;55146;47.468;18.806;2022-07-25T10:21:07;99967.88;;;34.45;24.29
68301;BME280;55146;47.468;18.806;2022-07-25T10:23:33;99972.44;;;34.23;22.82
68301;BME280;55146;47.468;18.806;2022-07-25T10:26:10;99962.41;;;34.34;27.18
68301;BME280;55146;47.468;18.806;2022-07-25T10:28:45;99953.81;;;34.34;23.71
68301;BME280;55146;47.468;18.806;2022-07-25T10:31:20;99948.53;;;34.53;26.31
68301;BME280;55146;47.468;18.806;2022-07-25T10:33:48;99948.56;;;34.88;24.15
68301;BME280;55146;47.468;18.806;2022-07-25T10:36:14;99940.09;;;35.01;24.43
68301;BME280;55146;47.468;18.806;2022-07-25T10:38:43;99947.00;;;35.04;22.92
68301;BME280;55146;47.468;18.806;2022-07-25T10:41:11;99942.31;;;34.77;23.58
68301;BME280;55146;47.468;18.806;2022-07-25T10:43:38;99937.75;;;34.80;22.36
68301;BME280;55146;47.468;18.806;2022-07-25T10:46:12;99936.38;;;34.68;25.24
68301;BME280;55146;47.468;18.806;2022-07-25T10:48:38;99926.16;;;34.67;23.73
68301;BME280;55146;47.468;18.806;2022-07-25T10:51:07;99919.28;;;35.01;22.96
68301;BME280;55146;47.468;18.806;2022-07-25T10:56:15;99928.50;;;34.92;21.36
68301;BME280;55146;47.468;18.806;2022-07-25T10:58:42;99920.81;;;35.05;23.61
68301;BME280;55146;47.468;18.806;2022-07-25T11:01:08;99920.94;;;35.18;24.95
68301;BME280;55146;47.468;18.806;2022-07-25T11:03:34;99907.03;;;35.00;22.79
68301;BME280;55146;47.468;18.806;2022-07-25T11:05:59;99913.66;;;34.81;24.67
68301;BME280;55146;47.468;18.806;2022-07-25T11:08:34;99906.59;;;35.02;23.43
68301;BME280;55146;47.468;18.806;2022-07-25T11:11:00;99904.19;;;35.16;22.80
68301;BME280;55146;47.468;18.806;2022-07-25T11:13:25;99894.34;;;35.01;23.82
68301;BME280;55146;47.468;18.806;2022-07-25T11:15:56;99890.12;;;34.89;24.19
68301;BME280;55146;47.468;18.806;2022-07-25T11:20:59;99874.75;;;34.83;20.81
68301;BME280;55146;47.468;18.806;2022-07-25T11:23:24;99878.81;;;34.86;21.32
68301;BME280;55146;47.468;18.806;2022-07-25T11:25:50;99876.81;;;34.83;20.26
68301;BME280;55146;47.468;18.806;2022-07-25T11:28:15;99870.47;;;35.08;21.61
68301;BME280;55146;47.468;18.806;2022-07-25T11:30:41;99868.72;;;34.62;22.82
68301;BME280;55146;47.468;18.806;2022-07-25T11:33:06;99856.81;;;34.99;23.47
68301;BME280;55146;47.468;18.806;2022-07-25T11:35:32;99856.13;;;35.11;23.17
68301;BME280;55146;47.468;18.806;2022-07-25T11:38:02;99858.69;;;34.73;24.19
68301;BME280;55146;47.468;18.806;2022-07-25T11:40:28;99857.81;;;34.93;26.99
68301;BME280;55146;47.468;18.806;2022-07-25T11:42:56;99855.41;;;35.23;25.72
68301;BME280;55146;47.468;18.806;2022-07-25T11:45:29;99850.63;;;35.49;26.38
68301;BME280;55146;47.468;18.806;2022-07-25T11:48:09;99846.34;;;35.41;21.52
68301;BME280;55146;47.468;18.806;2022-07-25T11:50:40;99842.88;;;34.85;20.81
68301;BME280;55146;47.468;18.806;2022-07-25T11:53:08;99843.13;;;34.74;22.84
68301;BME280;55146;47.468;18.806;2022-07-25T11:55:35;99830.88;;;35.06;21.73
68301;BME280;55146;47.468;18.806;2022-07-25T11:58:04;99831.34;;;35.21;22.55
68301;BME280;55146;47.468;18.806;2022-07-25T12:00:33;99827.41;;;34.82;21.34
68301;BME280;55146;47.468;18.806;2022-07-25T12:03:11;99824.81;;;35.04;20.82
68301;BME280;55146;47.468;18.806;2022-07-25T12:05:37;99815.19;;;34.98;20.50
68301;BME280;55146;47.468;18.806;2022-07-25T12:08:17;99819.91;;;35.05;22.80
68301;BME280;55146;47.468;18.806;2022-07-25T12:10:44;99815.50;;;35.16;21.93
68301;BME280;55146;47.468;18.806;2022-07-25T12:13:25;99805.94;;;35.07;21.59
68301;BME280;55146;47.468;18.806;2022-07-25T12:15:51;99809.53;;;34.95;22.67
68301;BME280;55146;47.468;18.806;2022-07-25T12:18:17;99800.50;;;34.96;22.94
68301;BME280;55146;47.468;18.806;2022-07-25T12:20:42;99799.09;;;35.04;22.82
68301;BME280;55146;47.468;18.806;2022-07-25T12:23:09;99802.66;;;34.76;21.67
68301;BME280;55146;47.468;18.806;2022-07-25T12:25:37;99794.06;;;34.76;21.40
68301;BME280;55146;47.468;18.806;2022-07-25T12:28:03;99797.34;;;34.58;21.20
68301;BME280;55146;47.468;18.806;2022-07-25T12:30:30;99788.03;;;34.38;21.06
68301;BME280;55146;47.468;18.806;2022-07-25T12:32:56;99787.87;;;34.61;22.26
68301;BME280;55146;47.468;18.806;2022-07-25T12:35:22;99774.03;;;34.60;23.11
68301;BME280;55146;47.468;18.806;2022-07-25T12:37:48;99772.97;;;34.54;23.90
68301;BME280;55146;47.468;18.806;2022-07-25T12:40:14;99764.84;;;34.68;22.93
68301;BME280;55146;47.468;18.806;2022-07-25T12:42:40;99764.06;;;34.84;26.51
68301;BME280;55146;47.468;18.806;2022-07-25T12:45:07;99759.41;;;34.90;19.77
68301;BME280;55146;47.468;18.806;2022-07-25T12:47:33;99757.72;;;34.76;20.77
68301;BME280;55146;47.468;18.806;2022-07-25T12:49:59;99756.47;;;34.77;20.43